Yap International Airport
PTYA : now visible

Airfield :











YOU CAN JOIN US ON...

 
LOGIN :

Register | Disclaimer

   EN    FR    IT 

 









Legend :    VFR   Marginal VFR   IFR   Intensive IFR   Very Intensive IFR
Visi :
Ceiling :
>= 8 km
>= 3000ft
5 to 8 km
1000 to 3000 ft
1500m to 5 km
500 to 1000 ft
800 to 1500m
200 to 500 ft
< 800m
< 200 ft
Symbols :   Thunderstorms  Fog  Heavy snow  Heavy precipitations  Wind > 20 kt






- Airport Elevation : 91 ft
- IATA code : YAP


PTYA - Yap International

EXPIRED METARs :
  • 212250Z VRB04KT 7SM -SHRA SCT016CB BKN130 OVC300 26/24 A2998 RMK SHRAB02 CB ALQDS SLP152 T02610243

TAF PTYA
Valid from the 21 at 18:00 until the 22 at 18:00 UTC


211733Z 2118/2218 06011KT P6SM FEW018 SCT060
FM212300 07012G22KT P6SM VCSH SCT018 SCT050 BKN140
FM220800 07011KT P6SM VCSH FEW018 SCT050 SCT140



MET'MAP, your aeronautical weather chart ! - Copyright ORBIFLY December 2007 - Disclaimer

ORBIFLY MET'MAP TEAM :

Programming & Development : Alexandra Zaïnal
Concept & original design : Baudouin d'Aumeries
Assistance for programming : Marc-Olivier Méhu
Technical & hardware support : Manuel Goepfert

Contact : metmap@orbifly.com




SOURCES & CREDITS :

   NOAA       Earth
Advisory